createdAt,value
2019-04-01T00:01:44.186Z,19.50
2019-04-01T00:04:10.439Z,19.50
2019-04-01T00:06:37.102Z,19.50
2019-04-01T00:09:03.527Z,19.50
2019-04-01T00:11:29.946Z,19.50
2019-04-01T00:13:56.388Z,19.50
2019-04-01T00:16:22.815Z,19.50
2019-04-01T00:19:02.374Z,19.50
2019-04-01T00:21:15.675Z,19.50
2019-04-01T00:23:42.096Z,19.50
2019-04-01T00:26:08.363Z,19.50
2019-04-01T00:28:34.787Z,19.50
2019-04-01T00:31:01.215Z,19.40
2019-04-01T00:33:27.660Z,19.50
2019-04-01T00:35:54.059Z,19.40
2019-04-01T00:38:20.290Z,19.40
2019-04-01T00:40:46.542Z,19.40
2019-04-01T00:43:12.989Z,19.40
2019-04-01T00:45:39.429Z,19.40
2019-04-01T00:48:05.812Z,19.40
2019-04-01T00:50:33.871Z,19.40
2019-04-01T00:53:00.107Z,19.40
2019-04-01T00:55:26.588Z,19.40
2019-04-01T00:57:53.686Z,19.40
2019-04-01T01:00:20.007Z,19.40
2019-04-01T01:02:46.268Z,19.40
2019-04-01T01:05:12.487Z,19.40
2019-04-01T01:07:38.756Z,19.30
2019-04-01T01:10:05.188Z,19.30
2019-04-01T01:12:31.855Z,19.30
2019-04-01T01:14:58.259Z,19.30
2019-04-01T01:17:24.707Z,19.30
2019-04-01T01:19:51.089Z,19.30
2019-04-01T01:22:18.966Z,19.30
2019-04-01T01:24:46.037Z,19.30
2019-04-01T01:27:12.679Z,19.30
2019-04-01T01:29:39.522Z,19.30
2019-04-01T01:32:05.945Z,19.20
2019-04-01T01:34:32.364Z,19.20
2019-04-01T01:36:59.431Z,19.20
2019-04-01T01:39:25.872Z,19.20
2019-04-01T01:41:52.311Z,19.20
2019-04-01T01:44:18.674Z,19.20
2019-04-01T01:46:44.947Z,19.20
2019-04-01T01:49:11.380Z,19.20
2019-04-01T01:51:37.580Z,19.20
2019-04-01T01:54:05.445Z,19.20
2019-04-01T01:56:31.714Z,19.10
2019-04-01T01:58:58.549Z,19.20
2019-04-01T02:01:25.032Z,19.10
2019-04-01T02:03:51.383Z,19.10
2019-04-01T02:06:19.267Z,19.10
2019-04-01T02:08:47.002Z,19.10
2019-04-01T02:11:13.416Z,19.10
2019-04-01T02:13:39.799Z,19.10
2019-04-01T02:16:06.024Z,19.10
2019-04-01T02:18:32.286Z,19.10
2019-04-01T02:20:58.717Z,19.10
2019-04-01T02:23:25.138Z,19.10
2019-04-01T02:25:51.791Z,19.10
2019-04-01T02:28:18.195Z,19.10
2019-04-01T02:30:45.185Z,19.10
2019-04-01T02:33:11.472Z,19.10
2019-04-01T02:35:37.880Z,19.10
2019-04-01T02:38:04.192Z,19.00
2019-04-01T02:40:30.572Z,19.10
2019-04-01T02:42:57.022Z,19.10
2019-04-01T02:45:23.668Z,19.10
2019-04-01T02:47:50.059Z,19.00
2019-04-01T02:50:16.302Z,19.00
2019-04-01T02:52:42.572Z,19.00
2019-04-01T02:55:08.973Z,19.00
2019-04-01T02:57:35.386Z,19.00
2019-04-01T03:00:01.619Z,19.00
2019-04-01T03:02:27.861Z,19.00
2019-04-01T03:04:54.067Z,19.00
2019-04-01T03:07:20.315Z,19.00
2019-04-01T03:09:46.748Z,19.00
2019-04-01T03:12:13.198Z,19.00
2019-04-01T03:14:39.630Z,19.00
2019-04-01T03:17:06.038Z,19.00
2019-04-01T03:19:32.506Z,18.90
2019-04-01T03:21:58.933Z,19.00
2019-04-01T03:24:25.349Z,19.00
2019-04-01T03:26:51.775Z,19.00
2019-04-01T03:29:17.992Z,18.90
2019-04-01T03:31:44.469Z,18.90
2019-04-01T03:34:10.861Z,19.00
2019-04-01T03:36:38.726Z,18.90
2019-04-01T03:39:04.965Z,18.90
2019-04-01T03:41:31.397Z,18.90
2019-04-01T03:43:57.621Z,18.90
2019-04-01T03:46:23.928Z,18.90
2019-04-01T03:48:50.307Z,18.90
2019-04-01T03:51:16.719Z,18.90
2019-04-01T03:53:42.959Z,18.90
2019-04-01T03:56:09.168Z,18.90
2019-04-01T03:58:35.398Z,18.90
2019-04-01T04:01:01.668Z,18.90
2019-04-01T04:03:27.923Z,18.90
2019-04-01T04:05:54.296Z,18.90
2019-04-01T04:08:20.492Z,18.90
2019-04-01T04:10:46.714Z,18.90
2019-04-01T04:13:12.980Z,18.90
2019-04-01T04:15:39.247Z,18.90
2019-04-01T04:18:05.667Z,18.90
2019-04-01T04:20:32.319Z,18.80
2019-04-01T04:22:58.707Z,18.90
2019-04-01T04:25:24.954Z,18.80
2019-04-01T04:27:51.214Z,18.90
2019-04-01T04:30:17.433Z,18.90
2019-04-01T04:32:43.836Z,18.80
2019-04-01T04:35:10.250Z,18.80
2019-04-01T04:37:38.129Z,18.80
2019-04-01T04:40:04.403Z,18.80
2019-04-01T04:42:30.832Z,18.80
2019-04-01T04:44:57.248Z,18.80
2019-04-01T04:47:23.532Z,18.80
2019-04-01T04:49:49.929Z,18.80
2019-04-01T04:52:16.360Z,18.80
2019-04-01T04:54:42.743Z,18.80
2019-04-01T04:57:08.981Z,18.80
2019-04-01T04:59:36.856Z,18.80
2019-04-01T05:02:04.737Z,18.80
2019-04-01T05:04:31.759Z,18.80
2019-04-01T05:06:58.012Z,18.70
2019-04-01T05:09:24.252Z,18.70
2019-04-01T05:11:50.637Z,18.80
2019-04-01T05:14:16.924Z,18.70
2019-04-01T05:16:43.312Z,18.80
2019-04-01T05:19:09.563Z,18.70
2019-04-01T05:21:35.996Z,18.80
2019-04-01T05:24:02.199Z,18.80
2019-04-01T05:26:28.432Z,18.70
2019-04-01T05:28:54.686Z,18.70
2019-04-01T05:31:21.103Z,18.70
2019-04-01T05:33:55.383Z,18.70
2019-04-01T05:36:15.403Z,18.70
2019-04-01T05:38:41.871Z,18.70
2019-04-01T05:41:08.273Z,18.70
2019-04-01T05:43:34.719Z,18.70
2019-04-01T05:46:01.194Z,18.70
2019-04-01T05:48:27.568Z,18.70
2019-04-01T05:50:53.833Z,18.70
2019-04-01T05:53:20.243Z,18.70
2019-04-01T05:55:46.478Z,18.70
2019-04-01T05:58:12.884Z,18.70
2019-04-01T06:00:39.075Z,18.70
2019-04-01T06:03:05.298Z,18.70
2019-04-01T06:05:31.585Z,18.70
2019-04-01T06:07:58.010Z,18.70
2019-04-01T06:10:25.871Z,18.70
2019-04-01T06:12:52.144Z,18.70
2019-04-01T06:15:18.554Z,18.70
2019-04-01T06:17:44.970Z,18.70
2019-04-01T06:20:11.443Z,18.70
2019-04-01T06:22:37.833Z,18.70
2019-04-01T06:25:04.048Z,18.70
2019-04-01T06:27:30.600Z,18.70
2019-04-01T06:29:59.172Z,18.70
2019-04-01T06:32:23.192Z,18.70
2019-04-01T06:34:53.111Z,18.70
2019-04-01T06:37:16.060Z,18.70
2019-04-01T06:39:42.520Z,18.70
2019-04-01T06:42:08.906Z,18.70
2019-04-01T06:44:35.128Z,18.70
2019-04-01T06:47:01.351Z,18.70
2019-04-01T06:49:27.572Z,18.70
2019-04-01T06:51:53.861Z,18.70
2019-04-01T06:54:20.232Z,18.70
2019-04-01T06:56:46.449Z,18.70
2019-04-01T06:59:12.756Z,18.70
2019-04-01T07:01:38.988Z,18.70
2019-04-01T07:04:05.386Z,18.70
2019-04-01T07:06:31.805Z,18.70
2019-04-01T07:08:58.008Z,18.70
2019-04-01T07:11:24.327Z,18.70
2019-04-01T07:13:50.685Z,18.70
2019-04-01T07:16:16.944Z,18.70
2019-04-01T07:18:43.379Z,18.70
2019-04-01T07:21:09.821Z,18.70
2019-04-01T07:23:36.250Z,18.70
2019-04-01T07:26:02.664Z,18.70
2019-04-01T07:28:29.095Z,18.60
2019-04-01T07:30:55.540Z,18.70
2019-04-01T07:33:21.986Z,18.60
2019-04-01T07:35:48.429Z,18.60
2019-04-01T07:38:14.816Z,18.60
2019-04-01T07:40:41.037Z,18.60
2019-04-01T07:43:07.335Z,18.70
2019-04-01T07:45:33.720Z,18.70
2019-04-01T07:48:00.141Z,18.70
2019-04-01T07:50:26.406Z,18.70
2019-04-01T07:52:55.375Z,18.70
2019-04-01T07:55:19.026Z,18.60
2019-04-01T07:57:45.273Z,18.70
2019-04-01T08:00:11.465Z,18.60
2019-04-01T08:02:37.733Z,18.70
2019-04-01T08:05:04.127Z,18.70
2019-04-01T08:07:30.404Z,18.60
2019-04-01T08:09:56.832Z,18.70
2019-04-01T08:12:23.671Z,18.70
2019-04-01T08:14:49.739Z,18.70
2019-04-01T08:17:16.114Z,18.60
2019-04-01T08:19:44.021Z,18.60
2019-04-01T08:22:10.690Z,18.60
2019-04-01T08:24:37.059Z,18.60
2019-04-01T08:27:03.315Z,18.70
2019-04-01T08:29:30.803Z,18.60
2019-04-01T08:31:56.190Z,18.60
2019-04-01T08:34:22.590Z,18.70
2019-04-01T08:36:49.680Z,18.60
2019-04-01T08:39:16.102Z,18.60
2019-04-01T08:41:42.483Z,18.60
2019-04-01T08:44:08.962Z,18.70
2019-04-01T08:46:35.358Z,18.60
2019-04-01T08:49:01.589Z,18.70
2019-04-01T08:51:27.835Z,18.70
2019-04-01T08:53:54.254Z,18.70
2019-04-01T08:56:20.927Z,18.60
2019-04-01T08:58:47.319Z,18.60
2019-04-01T09:01:13.576Z,18.60
2019-04-01T09:03:40.030Z,18.70
2019-04-01T09:06:06.611Z,18.60
2019-04-01T09:08:32.893Z,18.60
2019-04-01T09:10:59.283Z,18.60
2019-04-01T09:13:25.515Z,18.70
2019-04-01T09:15:51.745Z,18.70
2019-04-01T09:18:18.171Z,18.70
2019-04-01T09:20:44.411Z,18.70
2019-04-01T09:23:10.667Z,18.60
2019-04-01T09:25:37.924Z,18.70
2019-04-01T09:28:04.118Z,18.60
2019-04-01T09:30:30.343Z,18.60
2019-04-01T09:32:56.573Z,18.70
2019-04-01T09:35:22.848Z,18.60
2019-04-01T09:37:49.237Z,18.70
2019-04-01T09:40:15.648Z,18.60
2019-04-01T09:42:41.892Z,18.70
2019-04-01T09:45:08.890Z,18.60
2019-04-01T09:47:35.080Z,18.70
2019-04-01T09:50:01.431Z,18.70
2019-04-01T09:52:27.826Z,18.70
2019-04-01T09:54:54.110Z,18.70
2019-04-01T09:57:20.526Z,18.70
2019-04-01T09:59:47.174Z,18.70
2019-04-01T10:02:13.613Z,18.70
2019-04-01T10:04:40.036Z,18.70
2019-04-01T10:07:06.435Z,18.70
2019-04-01T10:09:32.672Z,18.70
2019-04-01T10:11:59.102Z,18.70
2019-04-01T10:14:25.512Z,18.70
2019-04-01T10:16:51.778Z,18.70
2019-04-01T10:19:18.172Z,18.70
2019-04-01T10:21:45.433Z,18.70
2019-04-01T10:24:10.873Z,18.70
2019-04-01T10:26:37.527Z,18.70
2019-04-01T10:29:04.131Z,18.70
2019-04-01T10:31:31.979Z,18.70
2019-04-01T10:33:58.288Z,18.70
2019-04-01T10:36:24.684Z,18.70
2019-04-01T10:38:51.154Z,18.70
2019-04-01T10:41:17.561Z,18.70
2019-04-01T10:43:44.018Z,18.70
2019-04-01T10:46:12.270Z,18.70
2019-04-01T10:48:37.069Z,18.70
2019-04-01T10:51:03.708Z,18.70
2019-04-01T10:53:30.386Z,18.70
2019-04-01T10:55:57.066Z,18.70
2019-04-01T10:58:24.271Z,18.70
2019-04-01T11:00:50.717Z,18.70
2019-04-01T11:03:17.100Z,18.70
2019-04-01T11:05:43.499Z,18.70
2019-04-01T11:08:09.938Z,18.70
2019-04-01T11:10:36.366Z,18.70
2019-04-01T11:13:02.802Z,18.70
2019-04-01T11:15:29.063Z,18.70
2019-04-01T11:17:55.700Z,18.70
2019-04-01T11:20:22.107Z,18.70
2019-04-01T11:22:48.772Z,18.70
2019-04-01T11:25:15.176Z,18.70
2019-04-01T11:27:41.384Z,18.70
2019-04-01T11:30:08.024Z,18.70
2019-04-01T11:32:34.104Z,18.70
2019-04-01T11:35:00.435Z,18.70
2019-04-01T11:37:26.680Z,18.70
2019-04-01T11:39:53.066Z,18.70
2019-04-01T11:42:19.437Z,18.70
2019-04-01T11:44:46.084Z,18.70
2019-04-01T11:47:12.463Z,18.70
2019-04-01T11:49:38.746Z,18.70
2019-04-01T11:52:05.748Z,18.70
2019-04-01T11:54:32.798Z,18.70
2019-04-01T11:56:59.258Z,18.70
2019-04-01T11:59:25.691Z,18.70
2019-04-01T12:01:52.129Z,18.70
2019-04-01T12:04:18.518Z,18.70
2019-04-01T12:06:46.360Z,18.70
2019-04-01T12:09:12.623Z,18.70
2019-04-01T12:11:39.287Z,18.70
2019-04-01T12:14:05.921Z,18.70
2019-04-01T12:16:32.376Z,18.70
2019-04-01T12:18:58.787Z,18.70
2019-04-01T12:21:25.187Z,18.70
2019-04-01T12:23:52.904Z,18.70
2019-04-01T12:26:19.280Z,18.70
2019-04-01T12:28:45.524Z,18.70
2019-04-01T12:31:12.935Z,18.70
2019-04-01T12:33:38.412Z,18.70
2019-04-01T12:36:04.628Z,18.70
2019-04-01T12:38:31.064Z,18.70
2019-04-01T12:40:57.520Z,18.70
2019-04-01T12:43:23.901Z,18.70
2019-04-01T12:45:50.129Z,18.80
2019-04-01T12:48:16.365Z,18.70
2019-04-01T12:50:42.584Z,18.70
2019-04-01T12:53:08.845Z,18.80
2019-04-01T12:55:35.087Z,18.70
2019-04-01T12:58:01.722Z,18.70
2019-04-01T13:00:29.335Z,18.70
2019-04-01T13:02:58.715Z,18.70
2019-04-01T13:05:25.075Z,18.80
2019-04-01T13:07:54.393Z,18.70
2019-04-01T13:10:20.164Z,18.70
2019-04-01T13:12:46.789Z,18.70
2019-04-01T13:15:13.292Z,18.70
2019-04-01T13:17:39.540Z,18.70
2019-04-01T13:20:05.925Z,18.70
2019-04-01T13:22:33.035Z,18.80
2019-04-01T13:25:01.489Z,18.80
2019-04-01T13:27:25.683Z,18.80
2019-04-01T13:29:52.830Z,18.80
2019-04-01T13:32:20.136Z,18.80
2019-04-01T13:34:45.204Z,18.80
2019-04-01T13:37:11.599Z,18.80
2019-04-01T13:39:37.816Z,18.80
2019-04-01T13:42:05.920Z,18.80
2019-04-01T13:44:37.314Z,18.80
2019-04-01T13:46:58.804Z,18.80
2019-04-01T13:49:25.163Z,18.80
2019-04-01T13:51:51.383Z,18.80
2019-04-01T13:54:17.646Z,18.80
2019-04-01T13:56:44.929Z,18.80
2019-04-01T13:59:12.557Z,18.80
2019-04-01T14:01:38.002Z,18.80
2019-04-01T14:04:04.400Z,18.80
2019-04-01T14:06:30.603Z,18.80
2019-04-01T14:09:00.241Z,18.80
2019-04-01T14:11:23.537Z,18.80
2019-04-01T14:13:49.934Z,18.80
2019-04-01T14:16:17.214Z,18.80
2019-04-01T14:18:43.596Z,18.80
2019-04-01T14:21:17.444Z,18.80
2019-04-01T14:23:36.492Z,18.80
2019-04-01T14:26:02.926Z,18.90
2019-04-01T14:28:29.152Z,18.80
2019-04-01T14:30:55.357Z,18.80
2019-04-01T14:33:22.083Z,18.80
2019-04-01T14:35:48.435Z,18.90
2019-04-01T14:38:16.550Z,18.80
2019-04-01T14:40:42.958Z,18.80
2019-04-01T14:43:09.989Z,18.80
2019-04-01T14:45:35.734Z,18.80
2019-04-01T14:48:02.892Z,18.80
2019-04-01T14:50:29.299Z,18.80
2019-04-01T14:52:55.767Z,18.90
2019-04-01T14:55:22.205Z,18.90
2019-04-01T14:57:48.593Z,18.80
2019-04-01T15:00:14.876Z,18.80
2019-04-01T15:02:41.267Z,18.90
2019-04-01T15:05:07.503Z,18.80
2019-04-01T15:07:33.692Z,18.90
2019-04-01T15:09:59.951Z,18.90
2019-04-01T15:12:27.807Z,18.90
2019-04-01T15:14:54.045Z,18.80
2019-04-01T15:17:21.121Z,18.90
2019-04-01T15:19:48.666Z,18.80
2019-04-01T15:22:13.750Z,18.80
2019-04-01T15:24:39.995Z,18.90
2019-04-01T15:27:06.224Z,18.80
2019-04-01T15:29:32.641Z,18.90
2019-04-01T15:31:59.091Z,18.90
2019-04-01T15:34:25.349Z,18.80
2019-04-01T15:36:51.733Z,18.80
2019-04-01T15:39:19.800Z,18.90
2019-04-01T15:41:45.457Z,18.90
2019-04-01T15:44:10.875Z,18.90
2019-04-01T15:46:37.279Z,18.90
2019-04-01T15:49:03.519Z,18.90
2019-04-01T15:51:29.903Z,18.90
2019-04-01T15:53:56.198Z,18.90
2019-04-01T15:56:22.649Z,18.90
2019-04-01T15:58:50.812Z,18.90
2019-04-01T16:01:15.328Z,18.90
2019-04-01T16:03:41.727Z,18.90
2019-04-01T16:06:08.132Z,18.90
2019-04-01T16:08:34.586Z,18.90
2019-04-01T16:11:00.988Z,18.90
2019-04-01T16:13:28.864Z,18.90
2019-04-01T16:15:55.144Z,18.90
2019-04-01T16:18:21.522Z,18.90
2019-04-01T16:20:47.763Z,18.90
2019-04-01T16:23:14.232Z,18.90
2019-04-01T16:25:40.639Z,18.90
2019-04-01T16:28:07.080Z,18.90
2019-04-01T16:30:33.920Z,18.90
2019-04-01T16:33:00.315Z,18.90
2019-04-01T16:35:26.757Z,18.90
2019-04-01T16:37:52.997Z,18.90
2019-04-01T16:40:19.236Z,18.90
2019-04-01T16:42:45.664Z,18.90
2019-04-01T16:45:13.346Z,18.90
2019-04-01T16:47:39.949Z,18.90
2019-04-01T16:50:05.328Z,18.90
2019-04-01T16:52:31.413Z,18.90
2019-04-01T16:54:57.817Z,18.90
2019-04-01T16:57:24.059Z,18.90
2019-04-01T16:59:50.302Z,18.90
2019-04-01T17:02:18.546Z,18.90
2019-04-01T17:04:46.136Z,18.90
2019-04-01T17:07:11.925Z,18.90
2019-04-01T17:09:37.049Z,18.90
2019-04-01T17:12:03.703Z,18.90
2019-04-01T17:14:30.114Z,18.90
2019-04-01T17:16:56.339Z,18.90
2019-04-01T17:19:22.766Z,18.90
2019-04-01T17:21:49.190Z,18.90
2019-04-01T17:24:15.405Z,18.90
2019-04-01T17:26:43.526Z,18.90
2019-04-01T17:29:09.922Z,18.90
2019-04-01T17:31:36.993Z,18.90
2019-04-01T17:34:03.426Z,18.90
2019-04-01T17:36:29.854Z,18.90
2019-04-01T17:38:56.273Z,18.90
2019-04-01T17:41:22.507Z,18.90
2019-04-01T17:43:48.772Z,18.90
2019-04-01T17:46:15.197Z,18.90
2019-04-01T17:48:41.610Z,18.90
2019-04-01T17:51:07.815Z,18.90
2019-04-01T17:53:34.056Z,18.90
2019-04-01T17:56:00.525Z,18.90
2019-04-01T17:58:27.161Z,19.00
2019-04-01T18:00:53.584Z,18.90
2019-04-01T18:03:20.013Z,18.90
2019-04-01T18:05:46.427Z,18.90
2019-04-01T18:08:12.658Z,18.90
2019-04-01T18:10:39.130Z,18.90
2019-04-01T18:13:05.574Z,18.90
2019-04-01T18:15:31.948Z,19.00
2019-04-01T18:17:59.855Z,18.90
2019-04-01T18:20:26.295Z,18.90
2019-04-01T18:22:52.707Z,19.00
2019-04-01T18:25:18.932Z,18.90
2019-04-01T18:27:45.363Z,18.90
2019-04-01T18:30:11.785Z,19.00
2019-04-01T18:32:39.003Z,18.90
2019-04-01T18:35:05.264Z,18.90
2019-04-01T18:37:31.543Z,18.90
2019-04-01T18:39:57.963Z,18.90
2019-04-01T18:42:26.708Z,18.90
2019-04-01T18:44:50.636Z,19.00
2019-04-01T18:47:17.262Z,19.00
2019-04-01T18:49:43.705Z,18.90
2019-04-01T18:52:10.153Z,18.90
2019-04-01T18:54:36.519Z,18.90
2019-04-01T18:57:03.828Z,18.90
2019-04-01T18:59:30.250Z,18.90
2019-04-01T19:01:57.630Z,18.90
2019-04-01T19:04:23.926Z,18.90
2019-04-01T19:06:50.353Z,18.90
2019-04-01T19:09:16.780Z,18.90
2019-04-01T19:11:43.528Z,18.90
2019-04-01T19:14:11.068Z,18.90
2019-04-01T19:16:35.884Z,18.90
2019-04-01T19:19:02.302Z,18.90
2019-04-01T19:21:28.528Z,18.90
2019-04-01T19:23:55.591Z,18.90
2019-04-01T19:26:22.080Z,18.90
2019-04-01T19:28:48.301Z,18.90
2019-04-01T19:31:14.695Z,18.90
2019-04-01T19:33:41.150Z,18.90
2019-04-01T19:36:07.558Z,18.90
2019-04-01T19:38:33.985Z,18.90
2019-04-01T19:41:00.263Z,18.90
2019-04-01T19:43:26.656Z,18.90
2019-04-01T19:45:53.080Z,18.90
2019-04-01T19:48:19.528Z,18.90
2019-04-01T19:50:46.026Z,18.90
2019-04-01T19:53:12.378Z,18.90
2019-04-01T19:55:38.579Z,18.90
2019-04-01T19:58:05.215Z,18.90
2019-04-01T20:00:31.264Z,18.80
2019-04-01T20:02:57.549Z,18.90
2019-04-01T20:05:23.945Z,18.90
2019-04-01T20:07:50.356Z,18.90
2019-04-01T20:10:17.581Z,18.90
2019-04-01T20:12:43.646Z,18.80
2019-04-01T20:15:11.969Z,18.90
2019-04-01T20:17:36.500Z,18.80
2019-04-01T20:20:02.982Z,18.80
2019-04-01T20:22:29.366Z,18.80
2019-04-01T20:24:55.812Z,18.80
2019-04-01T20:27:22.467Z,18.80
2019-04-01T20:29:48.888Z,18.80
2019-04-01T20:32:17.460Z,18.80
2019-04-01T20:34:41.732Z,18.80
2019-04-01T20:37:07.951Z,18.80
2019-04-01T20:39:34.246Z,18.80
2019-04-01T20:42:00.632Z,18.80
2019-04-01T20:44:26.835Z,18.80
2019-04-01T20:46:53.058Z,18.80
2019-04-01T20:49:19.328Z,18.80
2019-04-01T20:51:45.786Z,18.80
2019-04-01T20:54:12.211Z,18.80
2019-04-01T20:56:38.604Z,18.80
2019-04-01T20:59:04.874Z,18.80
2019-04-01T21:01:31.252Z,18.80
2019-04-01T21:03:58.801Z,18.80
2019-04-01T21:06:23.973Z,18.80
2019-04-01T21:08:50.384Z,18.80
2019-04-01T21:11:16.847Z,18.80
2019-04-01T21:13:43.256Z,18.80
2019-04-01T21:16:09.699Z,18.80
2019-04-01T21:18:36.113Z,18.80
2019-04-01T21:21:02.771Z,18.80
2019-04-01T21:23:29.178Z,18.80
2019-04-01T21:25:55.387Z,18.80
2019-04-01T21:28:22.869Z,18.80
2019-04-01T21:30:48.173Z,18.80
2019-04-01T21:33:14.520Z,18.80
2019-04-01T21:35:40.964Z,18.80
2019-04-01T21:38:07.601Z,18.80
2019-04-01T21:40:34.009Z,18.80
2019-04-01T21:43:03.140Z,18.80
2019-04-01T21:45:27.075Z,18.80
2019-04-01T21:47:53.520Z,18.70
2019-04-01T21:50:19.952Z,18.80
2019-04-01T21:52:46.376Z,18.80
2019-04-01T21:55:12.625Z,18.80
2019-04-01T21:57:39.067Z,18.80
2019-04-01T22:00:05.512Z,18.80
2019-04-01T22:02:36.064Z,18.80
2019-04-01T22:04:58.319Z,18.80
2019-04-01T22:07:24.615Z,18.70
2019-04-01T22:09:50.993Z,18.80
2019-04-01T22:12:17.464Z,18.70
2019-04-01T22:14:44.101Z,18.80
2019-04-01T22:17:10.512Z,18.70
2019-04-01T22:19:36.708Z,18.80
2019-04-01T22:22:02.977Z,18.80
2019-04-01T22:24:29.387Z,18.80
2019-04-01T22:26:56.112Z,18.80
2019-04-01T22:29:22.462Z,18.80
2019-04-01T22:31:48.931Z,18.70
2019-04-01T22:34:15.366Z,18.80
2019-04-01T22:36:41.788Z,18.80
2019-04-01T22:39:08.191Z,18.80
2019-04-01T22:41:36.059Z,18.70
2019-04-01T22:44:02.517Z,18.70
2019-04-01T22:46:28.939Z,18.80
2019-04-01T22:48:55.353Z,18.80
2019-04-01T22:51:21.595Z,18.70
2019-04-01T22:53:48.273Z,18.70
2019-04-01T22:56:14.482Z,18.70
2019-04-01T22:58:41.133Z,18.70
2019-04-01T23:01:07.519Z,18.70
2019-04-01T23:03:33.756Z,18.80
2019-04-01T23:06:01.619Z,18.70
2019-04-01T23:08:31.043Z,18.70
2019-04-01T23:10:56.521Z,18.70
2019-04-01T23:13:22.505Z,18.70
2019-04-01T23:15:48.799Z,18.70
2019-04-01T23:18:14.987Z,18.70
2019-04-01T23:20:41.204Z,18.70
2019-04-01T23:23:07.468Z,18.70
2019-04-01T23:25:33.756Z,18.70
2019-04-01T23:28:00.206Z,18.70
2019-04-01T23:30:26.583Z,18.70
2019-04-01T23:32:52.835Z,18.70
2019-04-01T23:35:19.273Z,18.70
2019-04-01T23:37:45.682Z,18.70
2019-04-01T23:40:12.141Z,18.70
2019-04-01T23:42:38.546Z,18.70
2019-04-01T23:45:04.944Z,18.70
2019-04-01T23:47:31.450Z,18.70
2019-04-01T23:49:57.847Z,18.70
2019-04-01T23:52:24.050Z,18.70
2019-04-01T23:54:50.328Z,18.70
2019-04-01T23:57:16.709Z,18.70
2019-04-01T23:59:42.947Z,18.70
